← Previous May 31, 2023 4:52 PM

FTUS43 KABR 300520
TAFMBG
TAF
KMBG 300520Z 3006/3106 VRB05KT P6SM FEW250
     FM301600 27009KT P6SM FEW045 FEW250
     FM310000 24008KT P6SM FEW070 FEW250
     FM310400 03007KT P6SM FEW250=